地図

経路データ

SID SEASON NUMBER BASIN SUBBASIN NAME ISO_TIME NATURE LAT LON WMO_WIND WMO_PRES WMO_AGENCY TRACK_TYPE DIST2LAND LANDFALL IFLAG USA_AGENCY USA_ATCF_ID USA_LAT USA_LON USA_RECORD USA_STATUS USA_WIND USA_PRES USA_SSHS USA_R34_NE USA_R34_SE USA_R34_SW USA_R34_NW USA_R50_NE USA_R50_SE USA_R50_SW USA_R50_NW USA_R64_NE USA_R64_SE USA_R64_SW USA_R64_NW USA_POCI USA_ROCI USA_RMW USA_EYE TOKYO_LAT TOKYO_LON TOKYO_GRADE TOKYO_WIND TOKYO_PRES TOKYO_R50_DIR TOKYO_R50_LONG TOKYO_R50_SHORT TOKYO_R30_DIR TOKYO_R30_LONG TOKYO_R30_SHORT TOKYO_LAND CMA_LAT CMA_LON CMA_CAT CMA_WIND CMA_PRES HKO_LAT HKO_LON HKO_CAT HKO_WIND HKO_PRES NEWDELHI_LAT NEWDELHI_LON NEWDELHI_GRADE NEWDELHI_WIND NEWDELHI_PRES NEWDELHI_CI NEWDELHI_DP NEWDELHI_POCI REUNION_LAT REUNION_LON REUNION_TYPE REUNION_WIND REUNION_PRES REUNION_TNUM REUNION_CI REUNION_RMW REUNION_R34_NE REUNION_R34_SE REUNION_R34_SW REUNION_R34_NW REUNION_R50_NE REUNION_R50_SE REUNION_R50_SW REUNION_R50_NW REUNION_R64_NE REUNION_R64_SE REUNION_R64_SW REUNION_R64_NW BOM_LAT BOM_LON BOM_TYPE BOM_WIND BOM_PRES BOM_TNUM BOM_CI BOM_RMW BOM_R34_NE BOM_R34_SE BOM_R34_SW BOM_R34_NW BOM_R50_NE BOM_R50_SE BOM_R50_SW BOM_R50_NW BOM_R64_NE BOM_R64_SE BOM_R64_SW BOM_R64_NW BOM_ROCI BOM_POCI BOM_EYE BOM_POS_METHOD BOM_PRES_METHOD NADI_LAT NADI_LON NADI_CAT NADI_WIND NADI_PRES WELLINGTON_LAT WELLINGTON_LON WELLINGTON_WIND WELLINGTON_PRES DS824_LAT DS824_LON DS824_STAGE DS824_WIND DS824_PRES TD9636_LAT TD9636_LON TD9636_STAGE TD9636_WIND TD9636_PRES TD9635_LAT TD9635_LON TD9635_WIND TD9635_PRES TD9635_ROCI NEUMANN_LAT NEUMANN_LON NEUMANN_CLASS NEUMANN_WIND NEUMANN_PRES MLC_LAT MLC_LON MLC_CLASS MLC_WIND MLC_PRES USA_GUST BOM_GUST BOM_GUST_PER REUNION_GUST REUNION_GUST_PER USA_SEAHGT USA_SEARAD_NE USA_SEARAD_SE USA_SEARAD_SW USA_SEARAD_NW STORM_SPEED STORM_DIR
1976131N12142 1976 52 WP MM OLGA 1976-05-10 00:00:00 TS 12.3000 142.000 main 1613 1591 O________OOO__ jtwc_wp WP051976 12.3000 142.000 25 -1 12.3000 142.000 TC 25 12.3000 142.000 1 25 12.3000 142.000 25 1008 120 7 254
1976131N12142 1976 52 WP MM OLGA 1976-05-10 03:00:00 TS 12.1998 141.650 main 1591 1563 P________PPP__ WP051976 12.2001 141.650 25 -1 12.2001 141.650 TC 25 12.1987 141.651 1 25 12.2001 141.650 25 1008 120 7 254
1976131N12142 1976 52 WP MM OLGA 1976-05-10 06:00:00 TS 12.0995 141.301 main 1563 1540 O________OPO__ jtwc_wp WP051976 12.1000 141.300 25 -1 12.1000 141.300 TC 25 12.0978 141.302 1 25 12.1000 141.300 25 1008 120 7 254
1976131N12142 1976 52 WP MM OLGA 1976-05-10 09:00:00 TS 11.9995 140.951 main 1540 1514 P________PPP__ WP051976 12.0000 140.950 25 -1 12.0000 140.950 TC 25 11.9980 140.952 1 25 12.0000 140.950 25 1008 150 7 254
1976131N12142 1976 52 WP MM OLGA 1976-05-10 12:00:00 TS 11.9000 140.600 main 1514 1493 O________OOO__ jtwc_wp WP051976 11.9000 140.600 25 -1 11.9000 140.600 TC 25 11.9000 140.600 1 25 11.9000 140.600 25 1008 180 7 254
1976131N12142 1976 52 WP MM OLGA 1976-05-10 15:00:00 TS 11.8010 140.249 main 1489 1468 P________PPP__ WP051976 11.8000 140.250 25 -1 11.8000 140.250 TC 25 11.8040 140.246 1 25 11.8000 140.250 25 1008 180 7 254
1976131N12142 1976 52 WP MM OLGA 1976-05-10 18:00:00 TS 11.7018 139.898 main 1468 1447 O________OPO__ jtwc_wp WP051976 11.7000 139.900 25 -1 11.7000 139.900 TC 25 11.7074 139.893 1 25 11.7000 139.900 25 1008 180 7 254
1976131N12142 1976 52 WP MM OLGA 1976-05-10 21:00:00 TS 11.6074 139.548 main 1444 1423 P________PPP__ WP051976 11.6075 139.550 25 -1 11.6075 139.550 TC 25 11.6071 139.543 1 25 11.6075 139.550 25 1008 150 7 254
1976131N12142 1976 52 WP MM OLGA 1976-05-11 00:00:00 TS 11.5000 139.200 main 1423 1404 O________OOO__ jtwc_wp WP051976 11.5000 139.200 25 -1 11.5000 139.200 TC 25 11.5000 139.200 1 25 11.5000 139.200 25 1009 120 7 250
1976131N12142 1976 52 WP MM OLGA 1976-05-11 03:00:00 TS 11.3580 138.849 main 1399 1363 P________PPP__ WP051976 11.3500 138.842 25 -1 11.3500 138.842 TC 25 11.3820 138.868 1 25 11.3500 138.842 25 1007 150 7 247
1976131N12142 1976 52 WP MM OLGA 1976-05-11 06:00:00 TS 11.2143 138.511 main 1363 1329 O________OPO__ jtwc_wp WP051976 11.2000 138.500 25 -1 11.2000 138.500 TC 25 11.2573 138.543 1 25 11.2000 138.500 25 1006 180 7 248
1976131N12142 1976 52 WP MM OLGA 1976-05-11 09:00:00 TS 11.1072 138.205 main 1329 1294 P________PPP__ WP051976 11.0999 138.200 25 -1 11.0999 138.200 TC 25 11.1289 138.221 1 25 11.0999 138.200 25 1005 210 6 250
1976131N12142 1976 52 WP MM OLGA 1976-05-11 12:00:00 TS 11.0000 137.900 main 1294 1259 O________OOO__ jtwc_wp WP051976 11.0000 137.900 25 -1 11.0000 137.900 TC 25 11.0000 137.900 1 25 11.0000 137.900 25 1004 240 7 248
1976131N12142 1976 52 WP MM OLGA 1976-05-11 15:00:00 TS 10.8491 137.555 main 1256 1222 P________PPP__ WP051976 10.8500 137.550 25 -1 10.8500 137.550 TC 25 10.8465 137.571 1 25 10.8500 137.550 25 1004 240 7 242
1976131N12142 1976 52 WP MM OLGA 1976-05-11 18:00:00 TS 10.6759 137.281 1004 tokyo main 1222 1187 OO_______OPO__ jtwc_wp WP051976 10.7000 137.200 25 -1 10.3000 138.400 2 1004 0 0 0 10.7000 137.200 TC 25 10.6974 137.242 1 25 10.7000 137.200 25 1004 240 6 241
1976131N12142 1976 52 WP MM OLGA 1976-05-11 21:00:00 TS 10.5494 137.012 main 1184 1163 PP_______PPP__ WP051976 10.5775 136.878 25 -1 10.3301 138.005 2 1004 0 0 10.5775 136.878 TC 25 10.5746 136.918 1 25 10.5775 136.878 25 1004 240 5 250
1976131N12142 1976 52 WP MM OLGA 1976-05-12 00:00:00 TS 10.4842 136.758 1004 tokyo main 1163 1142 OO_______OOO__ jtwc_wp WP051976 10.5000 136.600 25 -1 10.4000 137.600 2 1004 0 0 0 10.5000 136.600 TC 25 10.5000 136.600 1 25 10.5000 136.600 25 1004 240 5 262
1976131N12142 1976 52 WP MM OLGA 1976-05-12 03:00:00 TS 10.4864 136.544 main 1132 1110 PP_______PPP__ WP051976 10.4699 136.415 25 -1 10.5350 137.185 2 1004 0 0 10.4699 136.415 TC 25 10.4874 136.289 1 26 10.4699 136.415 25 1004 270 5 279
1976131N12142 1976 52 WP MM OLGA 1976-05-12 06:00:00 TS 10.5571 136.307 1004 tokyo main 1114 1082 OO_O_____OPO__ jtwc_wp WP051976 10.5000 136.200 25 -1 10.7000 136.800 2 1004 0 0 0 10.8000 136.900 TD 25 1000 10.5000 136.200 TC 25 10.5249 135.985 1 27 10.5000 136.200 25 1004 300 6 285
1976131N12142 1976 52 WP MM OLGA 1976-05-12 09:00:00 TS 10.6323 135.996 main 1082 1052 PP_P_____PPP__ WP051976 10.5851 135.808 27 -1 10.8424 136.485 2 1004 0 0 10.5409 136.750 TD 25 1003 10.5851 135.808 TC 27 10.5999 135.689 1 28 10.5851 135.808 27 1004 300 6 283
1976131N12142 1976 52 WP MM OLGA 1976-05-12 12:00:00 TS 10.7000 135.683 1004 tokyo main 1052 1022 OOOO_____OOO__ jtwc_wp WP051976 10.7000 135.400 30 -1 11.0000 136.200 2 1004 0 0 0 10.3000 136.300 1 23 1004 10.3000 136.600 TD 25 1006 10.7000 135.400 TC 30 10.7000 135.400 1 30 10.7000 135.400 30 1004 300 6 287
1976131N12142 1976 52 WP MM OLGA 1976-05-12 15:00:00 TS 10.8102 135.411 main 1022 1003 PPP______PPP__ WP051976 10.7924 135.135 30 -1 11.1925 135.900 2 1004 0 0 10.6100 136.312 1 23 1004 TD 10.7924 135.135 TC 30 10.8115 135.106 1 30 10.7924 135.135 30 1004 330 6 302
1976131N12142 1976 52 WP MM OLGA 1976-05-12 18:00:00 TS 11.0074 135.177 1004 tokyo main 1006 978 OOO______OPO__ jtwc_wp WP051976 10.9000 134.900 30 -1 11.4000 135.600 2 1004 0 0 0 11.0000 136.200 1 23 1004 TD 10.9000 134.900 TC 30 10.9425 134.820 1 30 10.9000 134.900 30 1004 360 6 310
1976131N12142 1976 52 WP MM OLGA 1976-05-12 21:00:00 TS 11.2204 134.921 main 978 952 PPP______PPP__ WP051976 11.0500 134.593 30 -1 11.5999 135.322 2 1004 0 0 11.4950 135.875 1 26 1004 TD 11.0500 134.593 TC 30 11.0772 134.549 1 30 11.0500 134.593 30 1004 360 7 306
1976131N12142 1976 52 WP MM OLGA 1976-05-13 00:00:00 TS 11.4167 134.600 1004 tokyo main 952 923 OOO______OOO__ jtwc_wp WP051976 11.2000 134.300 30 -1 11.8000 135.000 2 1004 0 0 0 11.9000 135.400 1 29 1004 TD 11.2000 134.300 TC 30 11.2000 134.300 1 30 11.2000 134.300 30 1004 360 7 297
1976131N12142 1976 52 WP MM OLGA 1976-05-13 03:00:00 TS 11.5482 134.279 main 923 894 PPP______PPP__ WP051976 11.3149 134.085 32 -1 12.0302 134.535 2 1004 0 0 12.0328 134.797 1 33 1002 TD 11.3149 134.085 TC 32 11.2811 134.086 1 32 11.3149 134.085 32 1003 390 6 289
1976131N12142 1976 52 WP MM OLGA 1976-05-13 06:00:00 TS 11.6250 133.999 1004 tokyo main 894 876 OOO______OPO__ jtwc_wp WP051976 11.4000 133.900 35 0 12.2000 134.100 9 1004 0 0 0 12.0000 134.300 2 38 1000 TD 11.4000 133.900 TC 35 11.3498 133.892 1 35 11.4000 133.900 35 1002 420 5 283
1976131N12142 1976 52 WP MM OLGA 1976-05-13 09:00:00 TS 11.6559 133.810 main 876 865 PPP______PPP__ WP051976 11.4500 133.707 37 0 12.2449 133.862 9 1002 0 0 11.9223 134.175 2 38 1000 TD 11.4500 133.707 TC 37 11.4186 133.702 1 37 11.4500 133.707 37 1001 420 3 277
1976131N12142 1976 52 WP MM OLGA 1976-05-13 12:00:00 TS 11.6667 133.650 1000 tokyo main 865 843 OOO______OOO__ jtwc_wp WP051976 11.5000 133.500 40 0 12.2000 133.700 9 1000 0 0 0 11.8000 134.200 2 38 1000 TD 11.5000 133.500 TC 40 11.5000 133.500 2 40 11.5000 133.500 40 1000 420 4 277
1976131N12142 1976 52 WP MM OLGA 1976-05-13 15:00:00 TS 11.6980 133.446 main 832 811 PPP______PPP__ WP051976 11.5850 133.257 40 0 12.1150 133.477 9 1000 0 0 11.7075 134.158 2 38 1000 TD 11.5850 133.257 TC 40 11.6106 133.268 2 38 11.5850 133.257 40 1000 390 4 280
1976131N12142 1976 52 WP MM OLGA 1976-05-13 18:00:00 TS 11.7392 133.237 1000 tokyo main 811 801 OOO______OPO__ jtwc_wp WP051976 11.7000 133.000 40 0 12.0000 133.300 9 1000 0 0 0 11.6000 134.100 2 38 1000 TD 11.7000 133.000 TC 40 11.7349 133.022 2 37 11.7000 133.000 40 1000 360 4 284
1976131N12142 1976 52 WP MM OLGA 1976-05-13 21:00:00 TS 11.7957 133.043 main 790 779 PPP______PPP__ WP051976 11.8500 132.750 37 0 11.9075 133.235 9 1000 0 0 11.4500 134.007 2 38 1000 TD 11.8500 132.750 TC 37 11.8668 132.765 2 36 11.8500 132.750 37 1000 330 4 286
1976131N12142 1976 52 WP MM OLGA 1976-05-14 00:00:00 TS 11.8500 132.850 1000 tokyo main 770 748 OOO______OOO__ jtwc_wp WP051976 12.0000 132.500 35 0 11.8000 133.200 9 1000 0 0 0 11.3000 133.900 2 38 1000 TD 12.0000 132.500 TC 35 12.0000 132.500 2 35 12.0000 132.500 35 1000 300 4 284
1976131N12142 1976 52 WP MM OLGA 1976-05-14 03:00:00 TS 11.8954 132.629 main 748 726 PPP______PPP__ WP051976 12.1000 132.257 35 0 11.6575 133.092 9 1000 0 0 11.1925 133.800 2 38 1000 TD 12.1000 132.257 TC 35 12.2226 132.110 2 33 12.1000 132.257 35 1000 300 4 281
1976131N12142 1976 52 WP MM OLGA 1976-05-14 06:00:00 TS 11.9383 132.405 1000 tokyo main 726 696 OOO______OPO__ jtwc_wp WP051976 12.2000 132.000 35 0 11.5000 133.000 9 1000 0 0 0 11.1000 133.700 2 38 1000 TD 12.2000 132.000 TC 35 12.4299 131.732 2 32 12.2000 132.000 35 1000 300 6 288
1976131N12142 1976 52 WP MM OLGA 1976-05-14 09:00:00 TS 12.0770 132.071 main 697 685 PPP______PPP__ WP051976 12.5216 131.459 32 -1 11.3500 132.985 9 1000 0 0 11.0000 133.600 2 38 1000 TD 12.5216 131.459 TC 32 12.5472 131.463 2 31 12.5216 131.459 32 1000 270 4 282
1976131N12142 1976 52 WP MM OLGA 1976-05-14 12:00:00 TS 12.0167 132.017 1000 tokyo main 685 685 OOO______OOO__ jtwc_wp WP051976 12.5000 131.400 30 -1 11.2000 133.000 9 1000 0 0 0 10.9000 133.500 2 38 1000 TD 12.5000 131.400 TC 30 12.5000 131.400 1 30 12.5000 131.400 30 1000 240 10 136
1976131N12142 1976 52 WP MM OLGA 1976-05-14 15:00:00 TS 11.3885 132.751 main 763 760 PPP______PPP__ WP051976 11.4610 132.770 30 -1 11.0425 133.000 9 1000 0 0 10.8000 133.400 2 38 1000 TD 11.4610 132.770 TC 30 12.1053 131.796 1 31 11.4610 132.770 30 999 240 19 132
1976131N12142 1976 52 WP MM OLGA 1976-05-14 18:00:00 TS 10.7265 133.496 1000 tokyo main 817 815 OOO______OPO__ jtwc_wp WP051976 10.4000 134.100 30 -1 10.9000 133.000 9 1000 0 0 0 10.7000 133.300 2 38 1000 TD 10.4000 134.100 TC 30 11.5593 132.376 1 32 10.4000 134.100 30 999 240 11 139
1976131N12142 1976 52 WP MM OLGA 1976-05-14 21:00:00 TS 10.5515 133.501 main 815 783 PPP______PPP__ WP051976 10.3345 133.954 32 -1 10.7775 133.023 9 1000 0 0 10.5849 133.238 2 38 999 TD 10.3345 133.954 TC 32 11.0082 132.943 1 33 10.3345 133.954 32 998 270 3 243
1976131N12142 1976 52 WP MM OLGA 1976-05-15 00:00:00 TS 10.5846 133.208 1000 tokyo main 783 761 OOOO_____OOO__ jtwc_wp WP051976 10.6000 133.300 35 0 10.7000 133.000 9 1000 0 0 0 10.5000 133.100 2 38 999 10.4000 133.100 TD 30 1000 10.6000 133.300 TC 35 10.6000 133.300 2 35 10.6000 133.300 35 998 300 6 273
1976131N12142 1976 52 WP MM OLGA 1976-05-15 03:00:00 TS 10.5843 132.938 main 751 718 PPPP_____PPP__ WP051976 10.6424 132.942 35 0 10.6624 132.902 9 1000 0 0 10.4626 132.780 2 38 999 10.4885 132.852 TD 30 999 10.6424 132.942 TC 35 10.5225 133.174 2 36 10.6424 132.942 35 997 300 6 276
1976131N12142 1976 52 WP MM OLGA 1976-05-15 06:00:00 TS 10.6436 132.618 1000 tokyo main 718 689 OOOO_____OPO__ jtwc_wp WP051976 10.7000 132.600 35 0 10.7000 132.700 9 1000 0 0 0 10.5000 132.400 2 38 999 10.6000 132.600 TD 30 998 10.7000 132.600 TC 35 10.6053 132.824 2 37 10.7000 132.600 35 997 300 7 287
1976131N12142 1976 52 WP MM OLGA 1976-05-15 09:00:00 TS 10.7851 132.268 main 692 652 PPPP_____PPP__ WP051976 10.8350 132.235 37 0 10.8351 132.365 9 1000 0 0 10.6275 132.085 2 38 999 10.7425 132.357 TD 32 998 10.8350 132.235 TC 37 10.7853 132.362 2 38 10.8350 132.235 37 997 300 7 295
1976131N12142 1976 52 WP MM OLGA 1976-05-15 12:00:00 TS 10.9571 131.929 1000 tokyo main 656 635 OOOO_____OOO__ jtwc_wp WP051976 11.0000 131.900 40 0 11.0000 132.000 9 1000 0 0 0 10.8000 131.800 2 38 999 10.9000 132.100 TS 35 998 11.0000 131.900 TC 40 11.0000 131.900 2 40 11.0000 131.900 40 997 300 7 297
1976131N12142 1976 52 WP MM OLGA 1976-05-15 15:00:00 TS 11.0896 131.658 main 638 611 PPPP_____PPP__ WP051976 11.1424 131.642 42 0 11.0849 131.735 9 1000 0 0 10.9350 131.535 2 38 999 11.0350 131.815 TS 37 996 11.1424 131.642 TC 42 11.1452 131.595 2 42 11.1424 131.642 42 996 300 6 299
1976131N12142 1976 52 WP MM OLGA 1976-05-15 18:00:00 TS 11.2446 131.402 1000 tokyo main 611 580 OOOO_____OPO__ jtwc_wp WP051976 11.3000 131.400 45 0 11.2000 131.500 9 1000 0 0 0 11.1000 131.300 2 38 999 11.2000 131.500 TS 40 995 11.3000 131.400 TC 45 11.3123 131.312 2 45 11.3000 131.400 45 996 300 6 304
1976131N12142 1976 52 WP MM OLGA 1976-05-15 21:00:00 TS 11.4523 131.117 main 581 560 PPPP_____PPP__ WP051976 11.4925 131.100 47 0 11.4350 131.243 9 1000 0 0 11.3200 131.092 2 38 999 11.4351 131.135 TS 42 995 11.4925 131.100 TC 47 11.4983 131.048 2 47 11.4925 131.100 47 995 300 7 309
1976131N12142 1976 52 WP MM OLGA 1976-05-16 00:00:00 TS 11.6857 130.843 1000 tokyo main 551 533 OOOO_____OOO__ jtwc_wp WP051976 11.7000 130.800 50 0 11.7000 131.000 9 1000 0 0 0 11.6000 130.900 2 38 999 11.7000 130.800 TS 45 995 11.7000 130.800 TC 50 11.7000 130.800 2 50 11.7000 130.800 50 995 300 7 312
1976131N12142 1976 52 WP MM OLGA 1976-05-16 03:00:00 TS 11.9081 130.602 main 533 516 PPPP_____PPP__ WP051976 11.8925 130.535 50 0 11.8925 130.792 9 999 0 0 11.9425 130.685 2 43 997 11.9499 130.577 TS 45 995 11.8925 130.535 TC 50 11.8943 130.552 2 50 11.8925 130.535 50 994 330 6 316
1976131N12142 1976 52 WP MM OLGA 1976-05-16 06:00:00 TS 12.1436 130.389 998 tokyo main 516 501 OOOO_____OPO__ jtwc_wp WP051976 12.1000 130.300 50 0 12.1000 130.600 9 998 0 0 0 12.3000 130.500 3 48 995 12.2000 130.400 TS 45 995 12.1000 130.300 TC 50 12.1049 130.320 2 50 12.1000 130.300 50 994 360 6 320
1976131N12142 1976 52 WP MM OLGA 1976-05-16 09:00:00 TS 12.3926 130.192 main 504 491 PPPP_____PPP__ WP051976 12.3275 130.085 50 0 12.3850 130.393 9 996 0 0 12.6000 130.400 3 48 995 12.4425 130.192 TS 45 995 12.3275 130.085 TC 50 12.3381 130.102 2 50 12.3275 130.085 50 993 360 6 325
1976131N12142 1976 52 WP MM OLGA 1976-05-16 12:00:00 TS 12.6714 130.014 994 tokyo main 492 482 OOOO_____OOO__ jtwc_wp WP051976 12.6000 129.900 50 0 12.7000 130.200 9 994 0 0 0 12.9000 130.300 3 48 995 12.7000 130.000 TS 45 995 12.6000 129.900 TC 50 12.6000 129.900 2 50 12.6000 129.900 50 993 360 7 332
1976131N12142 1976 52 WP MM OLGA 1976-05-16 15:00:00 TS 13.0039 129.864 main 486 469 PPPP_____PPP__ WP051976 12.9425 129.750 50 0 13.0074 130.057 9 993 0 0 13.2724 130.138 3 48 995 13.0000 129.850 TS 45 995 12.9425 129.750 TC 50 12.9203 129.751 2 50 12.9425 129.750 50 992 360 7 335
1976131N12142 1976 52 WP MM OLGA 1976-05-16 18:00:00 TS 13.3378 129.701 992 tokyo main 472 461 OOOO_____OPO__ jtwc_wp WP051976 13.3000 129.600 50 0 13.3000 129.900 9 992 0 0 0 13.6000 129.900 3 48 995 13.3000 129.700 TS 45 995 13.3000 129.600 TC 50 13.2644 129.610 2 50 13.3000 129.600 50 991 360 7 331
1976131N12142 1976 52 WP MM OLGA 1976-05-16 21:00:00 TS 13.6233 129.509 main 461 449 PPPP_____PPP__ WP051976 13.6224 129.437 50 0 13.5650 129.680 9 992 0 0 13.7649 129.595 3 48 993 13.5649 129.537 TS 45 995 13.6224 129.437 TC 50 13.6014 129.438 2 50 13.6224 129.437 50 991 360 7 320
1976131N12142 1976 52 WP MM OLGA 1976-05-17 00:00:00 TS 13.8714 129.243 992 tokyo main 443 425 OOOO_____OOO__ jtwc_wp WP051976 13.9000 129.200 50 0 13.8000 129.400 9 992 0 0 0 13.9000 129.200 3 48 991 13.8000 129.300 TS 45 995 13.9000 129.200 TC 50 13.9000 129.200 2 50 13.9000 129.200 50 992 360 8 307
1976131N12142 1976 52 WP MM OLGA 1976-05-17 03:00:00 TS 14.1007 128.869 main 425 401 PPPP_____PPP__ WP051976 14.1225 128.837 47 0 14.0224 129.087 9 993 0 0 14.1576 128.708 3 48 991 14.0225 128.938 TS 42 995 14.1225 128.837 TC 47 14.1348 128.835 2 48 14.1225 128.837 47 994 360 9 298
1976131N12142 1976 52 WP MM OLGA 1976-05-17 06:00:00 TS 14.2894 128.429 994 tokyo main 392 365 OOOO_____OPO__ jtwc_wp WP051976 14.3000 128.400 45 0 14.2000 128.700 9 994 0 0 0 14.4000 128.200 3 48 991 14.2000 128.500 TS 40 995 14.3000 128.400 TC 45 14.3255 128.403 2 47 14.3000 128.400 45 996 360 9 291
1976131N12142 1976 52 WP MM OLGA 1976-05-17 09:00:00 TS 14.4344 127.980 main 365 342 PPPP_____PPP__ WP051976 14.4650 127.950 45 0 14.3075 128.222 9 993 0 0 14.5373 127.785 3 48 991 14.3225 128.057 TS 40 994 14.4650 127.950 TC 45 14.4785 127.944 2 46 14.4650 127.950 45 995 360 9 286
1976131N12142 1976 52 WP MM OLGA 1976-05-17 12:00:00 TS 14.5429 127.529 992 tokyo main 334 301 OOOO_____OOO__ jtwc_wp WP051976 14.6000 127.500 45 0 14.4000 127.700 9 992 0 0 0 14.6000 127.400 3 48 991 14.4000 127.600 TS 40 994 14.6000 127.500 TC 45 14.6000 127.500 2 45 14.6000 127.500 45 995 360 9 283
1976131N12142 1976 52 WP MM OLGA 1976-05-17 15:00:00 TS 14.6377 127.086 main 301 263 PPPP_____PPP__ WP051976 14.7150 127.077 45 0 14.5576 127.163 9 991 0 0 14.6075 126.992 3 48 991 14.4501 127.112 TS 40 994 14.7150 127.077 TC 45 14.7037 127.100 2 45 14.7150 127.077 45 994 360 8 282
1976131N12142 1976 52 WP MM OLGA 1976-05-17 18:00:00 TS 14.7114 126.689 990 tokyo main 263 237 OOOO_____OPO__ jtwc_wp WP051976 14.8000 126.700 45 0 14.7000 126.700 9 990 0 0 0 14.6000 126.600 3 48 991 14.5000 126.700 TS 40 994 14.8000 126.700 TC 45 14.7799 126.725 2 45 14.8000 126.700 45 994 360 7 281
1976131N12142 1976 52 WP MM OLGA 1976-05-17 21:00:00 TS 14.7701 126.373 main 237 209 PPPP_____PPP__ WP051976 14.8574 126.377 45 0 14.7573 126.427 9 990 0 0 14.6200 126.212 3 53 991 14.5999 126.455 TS 40 994 14.8574 126.377 TC 45 14.8412 126.387 2 45 14.8574 126.377 45 994 390 6 282
1976131N12142 1976 52 WP MM OLGA 1976-05-18 00:00:00 TS 14.8286 126.114 990 tokyo main 209 196 OOOO_____OOO__ jtwc_wp WP051976 14.9000 126.100 45 0 14.8000 126.200 9 990 0 0 0 14.7000 125.900 3 58 991 14.7000 126.300 TS 40 994 14.9000 126.100 TC 45 14.9000 126.100 2 45 14.9000 126.100 45 994 420 5 286
1976131N12142 1976 52 WP MM OLGA 1976-05-18 03:00:00 TS 14.9089 125.861 main 196 186 PPPP_____PPP__ WP051976 14.9425 125.820 47 0 14.9226 125.835 9 990 0 0 14.9149 125.713 3 58 990 14.7350 126.142 TS 42 993 14.9425 125.820 TC 47 14.9625 125.875 2 46 14.9425 125.820 47 993 420 5 290
1976131N12142 1976 52 WP MM OLGA 1976-05-18 06:00:00 TS 14.9896 125.657 990 tokyo main 186 170 OOOO_____OPO__ jtwc_wp WP051976 15.0000 125.600 50 0 15.0000 125.500 9 990 0 0 0 15.1000 125.600 3 58 990 14.8000 126.000 TS 45 992 15.0000 125.600 TC 50 15.0271 125.697 2 47 15.0000 125.600 50 993 420 4 292
1976131N12142 1976 52 WP MM OLGA 1976-05-18 09:00:00 TS 15.0419 125.514 main 170 170 PPPP_____PPP__ WP051976 15.0849 125.477 50 0 14.8774 125.290 9 990 0 0 15.0575 125.477 3 58 989 15.0000 125.850 TS 45 992 15.0849 125.477 TC 50 15.1032 125.546 2 48 15.0849 125.477 50 991 420 3 298
1976131N12142 1976 52 WP MM OLGA 1976-05-18 12:00:00 TS 15.1143 125.414 990 tokyo main 170 170 OOOO_____OOO__ jtwc_wp WP051976 15.2000 125.400 50 0 14.8000 125.200 9 990 0 0 0 15.0000 125.400 3 58 989 15.2000 125.700 TS 45 992 15.2000 125.400 TC 50 15.2000 125.400 2 50 15.2000 125.400 50 989 420 3 322
1976131N12142 1976 52 WP MM OLGA 1976-05-18 15:00:00 TS 15.2546 125.341 main 181 181 PPPP_____PPP__ WP051976 15.3424 125.322 50 0 15.0050 125.257 9 990 0 0 15.1200 125.422 3 58 989 15.2650 125.542 TS 45 992 15.3424 125.322 TC 50 15.3651 125.197 2 50 15.3424 125.322 50 989 450 4 331
1976131N12142 1976 52 WP MM OLGA 1976-05-18 18:00:00 TS 15.4207 125.243 990 tokyo main 184 184 OOOO_____OPO__ jtwc_wp WP051976 15.5000 125.200 50 0 15.3000 125.300 9 990 0 0 0 15.3000 125.400 3 58 989 15.3000 125.400 TS 45 992 15.5000 125.200 TC 50 15.5451 124.998 2 50 15.5000 125.200 50 989 480 5 321
1976131N12142 1976 52 WP MM OLGA 1976-05-18 21:00:00 TS 15.6029 125.046 main 194 194 PPPP_____PPP__ WP051976 15.6951 124.958 50 0 15.5600 125.145 9 990 0 0 15.4726 125.180 3 58 989 15.4000 125.300 TS 45 991 15.6951 124.958 TC 50 15.7026 124.825 2 50 15.6951 124.958 50 989 480 5 306
1976131N12142 1976 52 WP MM OLGA 1976-05-19 00:00:00 TS 15.7143 124.829 990 tokyo main 197 193 OOOO_____OOO__ jtwc_wp WP051976 15.8000 124.700 50 0 15.7000 124.900 9 990 0 0 0 15.6000 124.900 3 58 989 15.5000 125.200 TS 45 990 15.8000 124.700 TC 50 15.8000 124.700 2 50 15.8000 124.700 50 989 480 4 276
1976131N12142 1976 52 WP MM OLGA 1976-05-19 03:00:00 TS 15.6483 124.632 main 181 169 PPPP_____PPP__ WP051976 15.6725 124.490 50 0 15.5801 124.597 9 987 0 0 15.6300 124.647 3 58 989 15.5575 125.050 TS 45 987 15.6725 124.490 TC 50 15.7530 124.658 2 51 15.6725 124.490 50 988 480 3 239
1976131N12142 1976 52 WP MM OLGA 1976-05-19 06:00:00 TS 15.5357 124.523 985 tokyo main 169 169 OOOO_____OPO__ jtwc_wp WP051976 15.5000 124.400 50 0 15.4000 124.400 9 985 0 0 0 15.6000 124.500 3 58 989 15.6000 124.900 TS 45 985 15.5000 124.400 TC 50 15.6499 124.662 2 52 15.5000 124.400 50 987 480 2 193
1976131N12142 1976 52 WP MM OLGA 1976-05-19 09:00:00 TS 15.4942 124.588 main 170 170 PPPP_____PPP__ WP051976 15.4625 124.520 52 0 15.3475 124.513 9 985 0 0 15.5350 124.570 3 58 987 15.6425 124.785 TS 47 985 15.4625 124.520 TC 52 15.5468 124.686 2 53 15.4625 124.520 52 986 480 2 97
1976131N12142 1976 52 WP MM OLGA 1976-05-19 12:00:00 TS 15.5143 124.700 985 tokyo main 173 173 OOOO_____OOO__ jtwc_wp WP051976 15.5000 124.700 55 0 15.4000 124.700 9 985 0 0 0 15.5000 124.700 3 58 985 15.7000 124.700 STS 50 985 15.5000 124.700 TC 55 15.5000 124.700 2 55 15.5000 124.700 55 986 480 2 53
1976131N12142 1976 52 WP MM OLGA 1976-05-19 15:00:00 TS 15.6051 124.744 main 184 184 PPPP_____PPP__ WP051976 15.5700 124.795 55 0 15.5700 124.730 9 985 0 0 15.5625 124.737 3 58 983 15.8000 124.650 STS 50 985 15.5700 124.795 TC 55 15.5933 124.705 2 56 15.5700 124.795 55 985 510 2 0
1976131N12142 1976 52 WP MM OLGA 1976-05-19 18:00:00 TS 15.7496 124.727 985 tokyo main 195 195 OOOO_____OPO__ jtwc_wp WP051976 15.7000 124.800 55 0 15.8000 124.700 9 985 0 0 0 15.7000 124.700 3 58 982 15.9000 124.600 STS 50 985 15.7000 124.800 TC 55 15.7472 124.690 2 57 15.7000 124.800 55 985 540 3 345
1976131N12142 1976 52 WP MM OLGA 1976-05-19 21:00:00 TS 15.9264 124.649 main 215 215 PPPP_____PPP__ WP051976 15.9000 124.703 57 0 16.0149 124.695 9 982 0 0 15.9000 124.588 3 58 981 15.9425 124.522 STS 52 982 15.9000 124.703 TC 57 15.9276 124.630 2 58 15.9000 124.703 57 983 540 4 327
1976131N12142 1976 52 WP MM OLGA 1976-05-20 00:00:00 TS 16.1000 124.486 980 tokyo main 231 207 OOOO_____OOO__ jtwc_wp WP051976 16.1000 124.500 60 0 16.2000 124.600 9 980 0 0 0 16.1000 124.400 3 58 980 16.0000 124.400 STS 55 980 16.1000 124.500 TC 60 16.1000 124.500 2 60 16.1000 124.500 60 981 540 5 307
1976131N12142 1976 52 WP MM OLGA 1976-05-20 03:00:00 TS 16.2244 124.240 main 197 173 PPPP_____PPP__ WP051976 16.2150 124.222 62 0 16.3301 124.330 9 980 0 0 16.2225 124.172 3 63 977 16.1424 124.238 STS 57 975 16.2150 124.222 TC 62 16.2308 124.272 2 62 16.2150 124.222 62 979 570 6 293
1976131N12142 1976 52 WP MM OLGA 1976-05-20 06:00:00 TS 16.3208 123.939 980 tokyo main 163 139 OOOO_____OPO__ jtwc_wp WP051976 16.3000 123.900 65 1 16.4000 124.000 9 980 0 0 0 16.3000 123.900 4 68 975 16.3000 124.000 STS 60 970 16.3000 123.900 TC 65 16.3453 123.975 2 65 16.3000 123.900 65 978 600 6 288
1976131N12142 1976 52 WP MM OLGA 1976-05-20 09:00:00 TS 16.4088 123.637 main 129 96 PPPP_____PPP__ WP051976 16.4150 123.600 67 1 16.4074 123.757 9 977 0 0 16.3575 123.592 4 68 967 16.4151 123.665 STS 62 965 16.4150 123.600 TC 67 16.4370 123.641 2 67 16.4150 123.600 67 972 600 6 284
1976131N12142 1976 52 WP MM OLGA 1976-05-20 12:00:00 TS 16.4714 123.329 975 tokyo main 96 69 OOOO_____OOO__ jtwc_wp WP051976 16.5000 123.300 70 1 16.4000 123.500 9 975 0 0 0 16.4000 123.300 4 68 960 16.5000 123.300 T 65 960 16.5000 123.300 TC 70 16.5000 123.300 3 70 16.5000 123.300 70 966 600 6 280
1976131N12142 1976 52 WP MM OLGA 1976-05-20 15:00:00 TS 16.5077 123.032 main 69 54 PPPP_____PPP__ WP051976 16.5150 123.000 77 1 16.4425 123.158 9 967 0 0 16.4574 123.085 4 72 947 16.5724 123.000 T 70 950 16.5150 123.000 TC 77 16.5369 122.980 3 77 16.5150 123.000 77 951 600 6 275
1976131N12142 1976 52 WP MM OLGA 1976-05-20 18:00:00 TS 16.5207 122.737 960 tokyo main 44 15 OOOO_____OPO__ jtwc_wp WP051976 16.5000 122.700 85 2 16.5000 122.800 9 960 0 0 0 16.5000 122.900 4 77 934 16.6000 122.700 T 75 940 16.5000 122.700 TC 85 16.5451 122.662 3 85 16.5000 122.700 85 936 600 6 272
1976131N12142 1976 52 WP MM OLGA 1976-05-20 21:00:00 TS 16.5283 122.429 main 15 0 PPPP_____PPP__ WP051976 16.5075 122.385 92 2 16.5650 122.478 9 950 0 0 16.5150 122.685 4 77 939 16.5651 122.320 T 82 955 16.5075 122.385 TC 92 16.5307 122.364 3 92 16.5075 122.385 92 938 630 6 269
1976131N12142 1976 52 WP MM OLGA 1976-05-21 00:00:00 TS 16.5143 122.157 940 tokyo main 0 0 OOOO_____OOO__ jtwc_wp WP051976 16.5000 122.100 100 3 16.6000 122.200 9 940 0 0 0 16.5000 122.500 4 77 945 16.5000 122.000 ST 90 970 16.5000 122.100 TC 100 16.5000 122.100 4 100 16.5000 122.100 100 940 660 4 263
1976131N12142 1976 52 WP MM OLGA 1976-05-21 03:00:00 TS 16.4765 121.965 main 0 0 PPPP_____PPP__ WP051976 16.4574 121.877 75 1 16.5799 121.993 9 955 0 0 16.4575 122.377 4 72 952 16.4574 121.878 ST 67 975 16.4574 121.877 TC 75 16.4683 121.873 4 86 16.4574 121.877 75 949 660 3 254
1976131N12142 1976 52 WP MM OLGA 1976-05-21 06:00:00 TS 16.4175 121.812 970 tokyo main 0 0 OOOO_____OPO__ jtwc_wp WP051976 16.4000 121.700 50 0 16.5000 121.800 9 970 0 0 0 16.4000 122.300 4 68 960 16.4000 121.800 TS 45 980 16.4000 121.700 TC 50 16.4223 121.682 4 72 16.4000 121.700 50 958 660 3 248
1976131N12142 1976 52 WP MM OLGA 1976-05-21 09:00:00 TS 16.3493 121.641 main 0 0 PPPP_____PPP__ WP051976 16.3500 121.535 47 0 16.3651 121.512 9 972 0 0 16.3500 122.243 4 68 960 16.3151 121.600 TS 42 980 16.3500 121.535 TC 47 16.3652 121.526 4 58 16.3500 121.535 47 966 660 3 244
1976131N12142 1976 52 WP MM OLGA 1976-05-21 12:00:00 TS 16.2714 121.500 975 tokyo main 0 0 OOOO_____OOO__ jtwc_wp WP051976 16.3000 121.400 45 0 16.2000 121.300 9 975 0 0 0 16.3000 122.200 4 68 960 16.2000 121.400 TS 40 980 16.3000 121.400 TC 45 16.3000 121.400 2 45 16.3000 121.400 45 975 660 3 234
1976131N12142 1976 52 WP MM OLGA 1976-05-21 15:00:00 TS 16.1891 121.412 main 0 0 PPPP_____PPP__ WP051976 16.2575 121.285 42 0 16.0349 121.290 9 975 0 0 16.2500 122.150 4 68 960 16.0424 121.300 TS 37 980 16.2575 121.285 TC 42 16.2240 121.292 2 42 16.2575 121.285 42 976 660 2 219
1976131N12142 1976 52 WP MM OLGA 1976-05-21 18:00:00 TS 16.1061 121.359 975 tokyo main 0 0 OOOO_____OPO__ jtwc_wp WP051976 16.2000 121.200 40 0 15.9000 121.400 9 975 0 0 0 16.2000 122.100 4 68 960 15.9000 121.200 TS 35 980 16.2000 121.200 TC 40 16.1424 121.213 2 40 16.2000 121.200 40 978 660 2 209
1976131N12142 1976 52 WP MM OLGA 1976-05-21 21:00:00 TS 16.0189 121.318 main 0 0 PPPP_____PPP__ WP051976 16.1000 121.143 37 0 15.7975 121.558 9 977 0 0 16.1424 122.080 4 68 960 15.8275 121.008 TS 32 982 16.1000 121.143 TC 37 16.0646 121.152 2 37 16.1000 121.143 37 979 660 2 210
1976131N12142 1976 52 WP MM OLGA 1976-05-22 00:00:00 TS 15.9571 121.271 980 tokyo main 0 0 OOOO_____OOO__ jtwc_wp WP051976 16.0000 121.100 35 0 15.8000 121.700 9 980 0 0 0 16.1000 122.000 4 68 960 15.8000 120.800 TD 30 985 16.0000 121.100 TC 35 16.0000 121.100 2 35 16.0000 121.100 35 980 660 1 238
1976131N12142 1976 52 WP MM OLGA 1976-05-22 03:00:00 TS 15.9426 121.197 main 0 0 PPPP_____PPP__ WP051976 15.9350 121.050 35 0 15.9699 121.782 9 980 0 0 16.0776 121.765 4 68 960 15.7850 120.635 TD 30 985 15.9350 121.050 TC 35 15.9606 121.047 2 35 15.9350 121.050 35 981 630 2 272
1976131N12142 1976 52 WP MM OLGA 1976-05-22 06:00:00 TS 15.9621 121.100 980 tokyo main 0 0 OOOO_____OPO__ jtwc_wp WP051976 15.9000 121.000 35 0 16.2000 121.700 9 980 0 0 0 16.1000 121.500 4 68 960 15.8000 120.500 TD 30 985 15.9000 121.000 TC 35 15.9350 121.000 2 35 15.9000 121.000 35 982 600 2 286
1976131N12142 1976 52 WP MM OLGA 1976-05-22 09:00:00 TS 16.0025 120.976 main 0 0 PPPP_____PPP__ WP051976 15.9000 120.950 35 0 16.3729 121.308 9 982 0 0 16.1849 121.335 4 63 965 15.8425 120.385 TD 30 985 15.9000 120.950 TC 35 15.9169 120.953 2 35 15.9000 120.950 35 983 570 2 289
1976131N12142 1976 52 WP MM OLGA 1976-05-22 12:00:00 TS 16.0429 120.857 985 tokyo main 0 0 OOOO_____OOO__ jtwc_wp WP051976 15.9000 120.900 35 0 16.5000 120.900 9 985 0 0 0 16.3000 121.200 3 58 970 15.9000 120.300 TD 30 985 15.9000 120.900 TC 35 15.9000 120.900 2 35 15.9000 120.900 35 985 540 2 284
1976131N12142 1976 52 WP MM OLGA 1976-05-22 15:00:00 TS 16.0480 120.788 main 0 0 PPPP_____PPP__ WP051976 15.8500 120.857 35 0 16.5649 120.812 9 985 0 0 16.4075 121.057 3 58 970 15.9425 120.242 TD 30 985 15.8500 120.857 TC 35 15.8709 120.828 2 35 15.8500 120.857 35 985 540 1 273
1976131N12142 1976 52 WP MM OLGA 1976-05-22 18:00:00 TS 16.0489 120.721 985 tokyo main 0 0 OOOO_____OPO__ jtwc_wp WP051976 15.8000 120.800 35 0 16.6000 120.800 9 985 0 0 0 16.5000 120.900 3 58 970 16.0000 120.200 TD 30 985 15.8000 120.800 TC 35 15.8425 120.750 2 35 15.8000 120.800 35 985 540 2 279
1976131N12142 1976 52 WP MM OLGA 1976-05-22 21:00:00 TS 16.0751 120.612 main 0 0 PPPP_____PPP__ WP051976 15.7925 120.700 35 0 16.6575 120.658 9 985 0 0 16.5725 120.708 3 53 975 16.1000 120.150 TD 30 985 15.7925 120.700 TC 35 15.8178 120.672 2 35 15.7925 120.700 35 985 570 2 283
1976131N12142 1976 52 WP MM OLGA 1976-05-23 00:00:00 TS 16.1000 120.500 985 tokyo main 0 0 OOOO_____OOO__ jtwc_wp WP051976 15.8000 120.600 35 0 16.7000 120.500 9 985 0 0 0 16.6000 120.500 3 48 980 16.2000 120.100 TD 30 985 15.8000 120.600 TC 35 15.8000 120.600 2 35 15.8000 120.600 35 985 600 2 279
1976131N12142 1976 52 WP MM OLGA 1976-05-23 03:00:00 TS 16.1047 120.414 main 0 0 PPPP_____PPP__ WP051976 15.8000 120.543 35 0 16.7225 120.400 9 985 0 0 16.5650 120.285 3 48 980 16.2650 120.043 TD 30 985 15.8000 120.543 TC 35 15.7806 120.543 2 35 15.8000 120.543 35 985 570 2 268
1976131N12142 1976 52 WP MM OLGA 1976-05-23 06:00:00 TS 16.0957 120.342 985 tokyo main 0 0 OOOO_____OPO__ jtwc_wp WP051976 15.8000 120.500 35 0 16.7000 120.300 9 985 0 0 0 16.5000 120.100 3 48 980 16.3000 120.000 TD 30 985 15.8000 120.500 TC 35 15.7700 120.492 2 35 15.8000 120.500 35 985 540 1 257
1976131N12142 1976 52 WP MM OLGA 1976-05-23 09:00:00 TS 16.0749 120.275 main 0 0 PPPP_____PPP__ WP051976 15.7925 120.450 35 0 16.6225 120.150 9 985 0 0 16.4500 119.985 3 48 980 16.3000 119.993 TD 30 985 15.7925 120.450 TC 35 15.7744 120.446 2 35 15.7925 120.450 35 985 510 1 253
1976131N12142 1976 52 WP MM OLGA 1976-05-23 12:00:00 TS 16.0571 120.214 985 tokyo main 10 10 OOOO_____OOO__ jtwc_wp WP051976 15.8000 120.400 35 0 16.5000 120.000 9 985 0 0 0 16.4000 119.900 3 48 980 16.3000 120.000 TD 30 985 15.8000 120.400 TC 35 15.8000 120.400 2 35 15.8000 120.400 35 985 480 1 259
1976131N12142 1976 52 WP MM OLGA 1976-05-23 15:00:00 TS 16.0528 120.158 main 10 0 PPPP_____PPP__ WP051976 15.8350 120.350 35 0 16.3500 119.900 9 985 0 0 16.3350 119.800 3 48 980 16.3425 120.000 TD 30 985 15.8350 120.350 TC 35 15.8372 120.358 2 36 15.8350 120.350 35 985 480 1 278
1976131N12142 1976 52 WP MM OLGA 1976-05-23 18:00:00 TS 16.0711 120.102 985 tokyo main 0 0 OOOO_____OPO__ jtwc_wp WP051976 15.9000 120.300 35 0 16.2000 119.800 9 985 0 0 0 16.3000 119.700 3 48 980 16.4000 120.000 TD 30 985 15.9000 120.300 TC 35 15.8975 120.315 2 37 15.9000 120.300 35 985 480 1 295
1976131N12142 1976 52 WP MM OLGA 1976-05-23 21:00:00 TS 16.1059 120.041 main 0 0 PPPP_____PPP__ WP051976 15.9775 120.257 37 0 16.0475 119.642 9 985 0 0 16.3275 119.600 3 48 980 16.4500 120.007 TD 32 985 15.9775 120.257 TC 37 15.9840 120.264 2 38 15.9775 120.257 37 985 480 2 313
1976131N12142 1976 52 WP MM OLGA 1976-05-24 00:00:00 TS 16.1857 119.971 985 tokyo main 10 0 OOOO_____OOO__ jtwc_wp WP051976 16.1000 120.200 40 0 16.0000 119.500 9 985 0 0 0 16.4000 119.500 3 48 980 16.5000 120.000 TS 35 985 16.1000 120.200 TC 40 16.1000 120.200 2 40 16.1000 120.200 40 985 480 3 327
1976131N12142 1976 52 WP MM OLGA 1976-05-24 03:00:00 TS 16.3305 119.885 main 0 0 PPPP_____PPP__ WP051976 16.2925 120.108 40 0 16.1625 119.420 9 987 0 0 16.4850 119.385 3 48 980 16.5425 119.950 TS 35 985 16.2925 120.108 TC 40 16.2463 120.114 2 40 16.2925 120.108 40 986 510 4 333
1976131N12142 1976 52 WP MM OLGA 1976-05-24 06:00:00 TS 16.5029 119.802 990 tokyo main 22 22 OOOO_____OPO__ jtwc_wp WP051976 16.5000 120.000 40 0 16.4000 119.400 9 990 0 0 0 16.6000 119.300 3 48 980 16.6000 119.900 TS 35 985 16.5000 120.000 TC 40 16.4200 120.015 2 40 16.5000 120.000 40 987 540 3 338
1976131N12142 1976 52 WP MM OLGA 1976-05-24 09:00:00 TS 16.6502 119.745 main 46 46 PPPP_____PPP__ WP051976 16.6500 119.900 40 0 16.5575 119.427 9 990 0 0 16.7425 119.285 3 48 980 16.6925 119.893 TS 35 985 16.6500 119.900 TC 40 16.6088 119.908 2 40 16.6500 119.900 40 988 540 3 343
1976131N12142 1976 52 WP MM OLGA 1976-05-24 12:00:00 TS 16.8000 119.700 990 tokyo main 56 56 OOOO_____OOO__ jtwc_wp WP051976 16.8000 119.800 40 0 16.7000 119.500 9 990 0 0 0 16.9000 119.300 3 48 980 16.8000 119.900 TS 35 985 16.8000 119.800 TC 40 16.8000 119.800 2 40 16.8000 119.800 40 990 540 3 344
1976131N12142 1976 52 WP MM OLGA 1976-05-24 15:00:00 TS 16.9635 119.656 main 77 77 PPPP_____PPP__ WP051976 17.0000 119.700 40 0 16.8350 119.607 9 990 0 0 17.0500 119.300 3 48 980 16.8925 119.893 TS 35 985 17.0000 119.700 TC 40 16.9669 119.692 2 40 17.0000 119.700 40 990 510 3 345
1976131N12142 1976 52 WP MM OLGA 1976-05-24 18:00:00 TS 17.1336 119.612 990 tokyo main 85 81 OOOO_____OPO__ jtwc_wp WP051976 17.2000 119.600 40 0 17.0000 119.700 9 990 0 0 0 17.2000 119.300 3 48 980 17.0000 119.900 TS 35 985 17.2000 119.600 TC 40 17.1350 119.585 2 40 17.2000 119.600 40 990 480 3 344
1976131N12142 1976 52 WP MM OLGA 1976-05-24 21:00:00 TS 17.2833 119.557 main 81 81 PPPP_____PPP__ WP051976 17.3500 119.500 40 0 17.2125 119.693 9 990 0 0 17.3350 119.293 3 43 982 17.0750 119.928 TS 35 987 17.3500 119.500 TC 40 17.3106 119.486 2 40 17.3500 119.500 40 990 480 4 344
1976131N12142 1976 52 WP MM OLGA 1976-05-25 00:00:00 TS 17.4714 119.514 990 tokyo main 85 84 OOOO_____OOO__ jtwc_wp WP051976 17.5000 119.400 40 0 17.5000 119.700 9 990 0 0 0 17.5000 119.300 2 38 985 17.3000 120.000 TS 35 990 17.5000 119.400 TC 40 17.5000 119.400 2 40 17.5000 119.400 40 990 480 5 351
1976131N12142 1976 52 WP MM OLGA 1976-05-25 03:00:00 TS 17.7300 119.477 main 85 85 PPPP_____PPP__ WP051976 17.6850 119.285 40 0 17.8400 119.820 9 990 0 0 17.6974 119.305 2 38 985 17.8399 120.105 TS 35 990 17.6850 119.285 TC 40 17.6778 119.251 2 40 17.6850 119.285 40 991 450 6 0
1976131N12142 1976 52 WP MM OLGA 1976-05-25 06:00:00 TS 18.0535 119.490 990 tokyo main 101 101 OOOO_____OPO__ jtwc_wp WP051976 17.9000 119.200 40 0 18.3000 120.000 9 990 0 0 0 18.0000 119.400 2 38 985 18.5000 120.300 TS 35 990 17.9000 119.200 TC 40 17.8743 119.129 2 40 17.9000 119.200 40 992 420 7 4
1976131N12142 1976 52 WP MM OLGA 1976-05-25 09:00:00 TS 18.4314 119.538 main 110 100 PPPP_____PPP__ WP051976 18.1496 119.080 40 0 18.9198 120.155 9 990 0 0 18.4775 119.640 2 38 985 19.0651 120.635 TS 35 990 18.1496 119.080 TC 40 18.1087 119.093 2 40 18.1496 119.080 40 992 390 8 17
1976131N12142 1976 52 WP MM OLGA 1976-05-25 12:00:00 TS 18.8286 119.743 990 tokyo main 104 84 OOOO_____OOO__ jtwc_wp WP051976 18.4000 119.200 40 0 19.6000 120.400 9 990 0 0 0 19.0000 120.000 2 38 985 19.6000 121.000 TS 35 990 18.4000 119.200 TC 40 18.4000 119.200 2 40 18.4000 119.200 40 993 360 10 42
1976131N12142 1976 52 WP MM OLGA 1976-05-25 15:00:00 TS 19.1397 120.213 main 84 79 PPPP_____PPP__ WP051976 18.5411 119.863 37 0 20.1924 120.790 9 990 0 0 19.3849 120.413 2 38 985 20.0997 121.236 TS 32 990 18.5411 119.863 TC 37 18.6776 119.463 2 38 18.5411 119.863 37 993 360 12 55
1976131N12142 1976 52 WP MM OLGA 1976-05-25 18:00:00 TS 19.5177 120.768 990 tokyo main 100 100 OOOO_____OPO__ jtwc_wp WP051976 18.8000 120.600 35 0 20.8000 121.300 9 990 0 0 0 19.8000 120.900 2 38 985 20.6000 121.500 TD 30 990 18.8000 120.600 TC 35 19.0240 119.879 2 37 18.8000 120.600 35 993 360 13 44
1976131N12142 1976 52 WP MM OLGA 1976-05-25 21:00:00 TS 20.0807 121.163 main 170 152 PPPP_____PPP__ WP051976 19.3364 120.830 35 0 21.5450 121.877 9 990 0 0 20.3850 121.442 2 38 987 21.1425 121.905 TD 30 990 19.3364 120.830 TC 35 19.4834 120.430 2 36 19.3364 120.830 35 991 330 15 33
1976131N12142 1976 52 WP MM OLGA 1976-05-26 00:00:00 TS 20.7571 121.614 990 tokyo main 142 136 OOOO_____OOO__ jtwc_wp WP051976 20.1000 121.100 35 0 22.2000 122.500 9 990 0 0 0 21.0000 122.000 2 38 990 21.7000 122.400 TD 30 990 20.1000 121.100 TC 35 20.1000 121.100 2 35 20.1000 121.100 35 990 300 17 37
1976131N12142 1976 52 WP MM OLGA 1976-05-26 03:00:00 TS 21.4497 122.282 main 155 151 PPPP_____PPP__ WP051976 20.9980 121.852 32 -1 22.5001 123.131 9 990 0 0 21.4922 122.501 2 38 990 22.2274 122.928 TD 27 990 20.9980 121.852 TC 32 20.9344 121.857 2 32 20.9980 121.852 32 990 270 20 42
1976131N12142 1976 52 WP MM OLGA 1976-05-26 06:00:00 TS 22.2167 123.047 990 tokyo main 192 192 OOOO_____OPO__ jtwc_wp WP051976 22.0000 122.800 30 -1 22.8000 123.700 9 990 0 0 0 22.0000 123.000 2 38 990 22.8000 123.500 TD 25 990 22.0000 122.800 TC 30 21.9170 122.726 2 30 22.0000 122.800 30 990 240 21 41
1976131N12142 1976 52 WP MM OLGA 1976-05-26 09:00:00 TS 23.0534 123.778 main 243 243 PPPP_____PPP__ WP051976 22.9924 123.708 27 -1 23.3795 124.109 9 992 0 0 22.5895 123.506 2 38 990 23.4618 124.049 TD 25 990 22.9924 123.708 TC 27 22.9657 123.658 2 27 22.9924 123.708 27 990 240 22 38
1976131N12142 1976 52 WP MM OLGA 1976-05-26 12:00:00 TS 23.9571 124.529 994 tokyo main 269 269 OOOO_____OOO__ jtwc_wp WP051976 24.0000 124.600 25 -1 24.2000 124.500 9 994 0 0 0 23.3000 124.100 2 38 990 24.2000 124.700 TD 25 990 24.0000 124.600 TC 25 24.0000 124.600 1 25 24.0000 124.600 25 990 240 24 36
1976131N12142 1976 52 WP MM OLGA 1976-05-26 15:00:00 TS 24.9657 125.297 main 332 332 PPPP_____PPP__ WP051976 25.0364 125.394 25 -1 25.2835 124.932 9 994 0 0 24.1587 124.849 2 38 990 25.0165 125.650 TD 25 990 25.0364 125.394 TC 25 24.9759 125.343 1 27 25.0364 125.394 25 991 270 25 35
1976131N12142 1976 52 WP MM OLGA 1976-05-26 18:00:00 TS 25.9544 126.084 994 tokyo main 426 426 OOOO_____OPO__ jtwc_wp WP051976 26.0000 126.200 25 -1 26.4000 125.600 2 994 0 0 0 25.1000 125.700 2 38 990 25.8000 126.500 TD 25 990 26.0000 126.200 TC 25 25.9153 126.102 1 30 26.0000 126.200 25 992 300 24 38
1976131N12142 1976 52 WP MM OLGA 1976-05-26 21:00:00 TS 26.8390 126.917 main 529 464 PP_P_____PPP__ WP051976 26.8443 127.017 30 -1 27.3046 126.657 2 994 0 0 2 26.4439 126.897 TD 25 992 26.8443 127.017 TC 30 26.7727 126.986 1 32 26.8443 127.017 30 993 330 24 47
1976131N12142 1976 52 WP MM OLGA 1976-05-27 00:00:00 TS 27.5714 128.029 994 tokyo main 454 354 OO_O_____OOO__ jtwc_wp WP051976 27.5000 128.100 35 0 28.0000 128.000 2 994 0 0 0 27.0000 127.000 TD 25 994 27.5000 128.100 TC 35 27.5000 128.100 2 35 27.5000 128.100 35 994 360 27 63
1976131N12142 1976 52 WP MM OLGA 1976-05-27 03:00:00 TS 28.0573 129.632 main 340 295 PP_______PPP__ WP051976 27.9036 129.683 35 0 28.5047 129.456 2 994 0 0 TD 27.9036 129.683 TC 35 28.0708 129.657 2 36 27.9036 129.683 35 994 360 31 75
1976131N12142 1976 52 WP MM OLGA 1976-05-27 06:00:00 TS 28.3783 131.387 994 tokyo main 297 297 OO_______OPO__ jtwc_wp WP051976 28.2000 131.500 35 0 28.8000 131.000 2 994 0 0 0 28.2000 131.500 TC 35 28.4916 131.437 2 37 28.2000 131.500 35 994 360 32 78
1976131N12142 1976 52 WP MM OLGA 1976-05-27 09:00:00 TS 28.7249 133.145 main 342 342 PP_______PPP__ WP051976 28.6306 133.316 37 0 28.9433 132.502 2 994 0 0 28.6306 133.316 TC 37 28.7895 133.274 2 38 28.6306 133.316 37 994 360 31 78
1976131N12142 1976 52 WP MM OLGA 1976-05-27 12:00:00 MX 29.0000 134.800 994 tokyo main 422 422 OO_______OOO__ jtwc_wp WP051976 29.0000 135.000 40 0 29.0000 134.000 6 994 0 0 0 29.0000 135.000 TC 40 29.0000 135.000 2 40 29.0000 135.000 40 994 360 27 80
1976131N12142 1976 52 WP MM OLGA 1976-05-27 15:00:00 MX 29.1889 136.167 main 470 467 PP_______PPP__ WP051976 29.1914 136.327 35 0 29.1061 135.507 6 994 0 0 29.1914 136.327 TC 35 29.2640 136.345 2 36 29.1914 136.327 35 994 330 23 82
1976131N12142 1976 52 WP MM OLGA 1976-05-27 18:00:00 MX 29.3112 137.413 994 tokyo main 481 481 OO_______OPO__ jtwc_wp WP051976 29.3000 137.500 30 -1 29.2000 137.000 6 994 0 0 0 29.3000 137.500 TC 30 29.4562 137.564 2 32 29.3000 137.500 30 995 300 22 83
1976131N12142 1976 52 WP MM OLGA 1976-05-27 21:00:00 MX 29.4409 138.665 main 523 519 PP_______PPP__ WP051976 29.4577 138.711 27 -1 29.2852 138.442 6 995 0 0 29.4577 138.711 TC 27 29.5462 138.751 2 28 29.4577 138.711 27 995 270 22 86
1976131N12142 1976 52 WP MM OLGA 1976-05-28 00:00:00 MX 29.4600 139.980 996 tokyo main 579 579 OO_______OOO__ jtwc_wp WP051976 29.5000 140.000 25 -1 29.3000 139.900 6 996 0 0 0 29.5000 140.000 TC 25 29.5000 140.000 1 25 29.5000 140.000 25 996 240 24 93
1976131N12142 1976 52 WP MM OLGA 1976-05-28 03:00:00 MX 29.3070 141.442 main 639 639 PP_______PPP__ WP051976 29.3394 141.463 22 -1 29.2239 141.442 6 998 0 0 29.3394 141.463 TC 22 29.2925 141.381 1 22 29.3394 141.463 22 997 180 27 100
1976131N12142 1976 52 WP MM OLGA 1976-05-28 06:00:00 MX 28.9902 142.976 1000 tokyo main 719 719 OO_______OPO__ jtwc_wp WP051976 29.0000 143.000 20 -1 29.0000 143.000 6 1000 0 0 0 29.0000 143.000 TC 20 28.9477 142.870 1 20 29.0000 143.000 20 999 120 28 106
1976131N12142 1976 52 WP MM OLGA 1976-05-28 09:00:00 MX 28.5233 144.474 main 835 835 PP_______PPP__ WP051976 28.5352 144.515 17 -1 28.5154 144.436 6 1003 0 0 28.5352 144.515 TC 17 28.5034 144.424 1 17 28.5352 144.515 17 1002 90 28 109
1976131N12142 1976 52 WP MM OLGA 1976-05-28 12:00:00 MX 28.0500 146.000 1006 tokyo main 952 952 OO_______OOO__ jtwc_wp WP051976 28.0000 146.000 15 -1 28.1000 146.000 6 1006 0 0 0 28.0000 146.000 TC 15 28.0000 146.000 1 15 28.0000 146.000 15 1006 60 30 98
1976131N12142 1976 52 WP MM OLGA 1976-05-28 15:00:00 ET 28.0888 147.891 main 1062 1062 _P____________ WP051976 -1 28.0888 147.891 6 1006 0 0 TC 1 35 88
1976131N12142 1976 52 WP MM OLGA 1976-05-28 18:00:00 ET 28.2000 150.000 1006 tokyo main 1195 1195 _O____________ -1 28.2000 150.000 6 1006 0 0 0 1 39 89
1976131N12142 1976 52 WP MM OLGA 1976-05-28 21:00:00 ET 28.1821 152.267 main 1359 1359 _P____________ -1 28.1821 152.267 6 1006 0 0 1 39 91
1976131N12142 1976 52 WP MM OLGA 1976-05-29 00:00:00 ET 28.1000 154.400 1006 tokyo main 1526 1526 _O____________ -1 28.1000 154.400 6 1006 0 0 0 34 94
1976131N12142 1976 52 WP MM OLGA 1976-05-29 03:00:00 ET 27.9627 156.167 main 1675 1675 _P____________ -1 27.9627 156.167 6 1006 0 0 28 96
1976131N12142 1976 52 WP MM OLGA 1976-05-29 06:00:00 ET 27.8000 157.500 1006 tokyo main 1794 1794 _O____________ -1 27.8000 157.500 6 1006 0 0 0 20 100
1976131N12142 1976 52 WP MM OLGA 1976-05-29 09:00:00 ET 27.6174 158.400 main 1880 1880 _P____________ -1 27.6174 158.400 6 1004 0 0 14 103
1976131N12142 1976 52 WP MM OLGA 1976-05-29 12:00:00 ET 27.5000 159.000 1002 tokyo main 1935 1935 _O____________ -1 27.5000 159.000 6 1002 0 0 0 10 99
1976131N12142 1976 52 WP MM OLGA 1976-05-29 15:00:00 ET 27.4590 159.551 main 1985 1985 _P____________ -1 27.4590 159.551 6 1003 0 0 10 84
1976131N12142 1976 52 WP MM OLGA 1976-05-29 18:00:00 ET 27.6000 160.100 1004 tokyo main 2021 2021 _O____________ -1 27.6000 160.100 6 1004 0 0 0 12 70
1976131N12142 1976 52 WP MM OLGA 1976-05-29 21:00:00 ET 27.8703 160.829 main 2063 2063 _P____________ -1 27.8703 160.829 6 1004 0 0 16 56
1976131N12142 1976 52 WP MM OLGA 1976-05-30 00:00:00 ET 28.5000 161.600 1004 tokyo main 2100 2097 _O____________ -1 28.5000 161.600 6 1004 0 0 0 21 36
1976131N12142 1976 52 WP MM OLGA 1976-05-30 03:00:00 ET 29.5907 162.229 main 2087 1994 _P____________ -1 29.5907 162.229 6 1004 0 0 28 26
1976131N12142 1976 52 WP MM OLGA 1976-05-30 06:00:00 ET 31.0000 163.000 1004 tokyo main 1989 1916 _O____________ -1 31.0000 163.000 6 1004 0 0 0 34 30
1976131N12142 1976 52 WP MM OLGA 1976-05-30 09:00:00 ET 32.4935 164.166 main 1912 1853 _P____________ -1 32.4935 164.166 6 1004 0 0 37 35
1976131N12142 1976 52 WP MM OLGA 1976-05-30 12:00:00 ET 34.0000 165.500 1004 tokyo main 1851 1815 _O____________ -1 34.0000 165.500 6 1004 0 0 0 36 37
1976131N12142 1976 52 WP MM OLGA 1976-05-30 15:00:00 ET 35.3519 166.783 main 1813 1799 _P____________ -1 35.3519 166.783 6 1005 0 0 33 38
1976131N12142 1976 52 WP MM OLGA 1976-05-30 18:00:00 ET 36.6000 168.000 1006 tokyo main 1793 1723 _O____________ -1 36.6000 168.000 6 1006 0 0 0 31 36
1976131N12142 1976 52 WP MM OLGA 1976-05-30 21:00:00 ET 37.8435 169.017 main 1723 1672 _P____________ -1 37.8435 169.017 6 1007 0 0 28 36
1976131N12142 1976 52 WP MM OLGA 1976-05-31 00:00:00 ET 38.9000 170.100 1008 tokyo main 1677 1668 _O____________ -1 38.9000 170.100 6 1008 0 0 0 26 46
1976131N12142 1976 52 WP MM OLGA 1976-05-31 03:00:00 ET 39.6199 171.421 main 1686 1683 _P____________ -1 39.6199 171.421 6 1008 0 0 26 61
1976131N12142 1976 52 WP MM OLGA 1976-05-31 06:00:00 ET 40.2000 173.100 1008 tokyo main 1718 1718 _O____________ -1 40.2000 173.100 6 1008 0 0 0 32 67
1976131N12142 1976 52 WP MM OLGA 1976-05-31 09:00:00 ET 40.8383 175.248 main 1772 1617 _P____________ -1 40.8383 175.248 6 1009 0 0 37 70
1976131N12142 1976 52 WP MM OLGA 1976-05-31 12:00:00 ET 41.5000 177.700 1010 tokyo main 1612 _O____________ -1 41.5000 177.700 6 1010 0 0 0 39 70

デジタル台風データ・検索

IBTrACS Databaseについて

本データベースは、米国NOAAが公開する1842年以降の世界の熱帯低気圧のベストトラックデータアーカイブInternational Best Track Archive for Climate Stewardship (IBTrACS)を、ウェブで閲覧しやすい形式に変換したものです。

最終更新日:2021-10-21